aviador You're here:

OIGG Decoded Metar

RASHT in IRAN
Report Time2017-10-20 12:00:00
UTC Time2017-10-20 12:21:53
Flight Rules vfr VFR
Wind300° at 04 kt
W.Decomp.*RWY 27: 3.6 kt HW 1.8 kt RCW
W.Rank300° ranks 3
Current wind is below 300° avg. (6.1)
Visibility9999 m
Phenomena:N/A
Clouds:Scattered TCU 020 Hf
Expected CloudBase > 3,200 ft AGL from Temp-Dew spread
CeilingNone
Temp22°C (ISA +7)
Dew Point14°C (61% RH)
AAT21.9°C
QNH1018 hPa
Density Alt807 ft
Elevation-43 ft
Report Wrong Elevation
Raw Report
METAR OIGG 201200Z 30004KT 9999 SCT020TCU 22/14 Q1018=

Extra information for OIGG:More info

Metar Taf Metar & Taf Last 4 Metars F.Rules Stats Wind Profile Meteogram Temp Stats Airport Information Weather charts Add Link Nearby VenuesMetar ALERT Operation Metar Decoded Social comments